TimeAWST,TemperatureF,Dew PointF,Humidity,Sea Level PressureIn,VisibilityMPH,Wind Direction,Wind SpeedMPH,Gust SpeedMPH,PrecipitationIn,Events,Conditions,WindDirDegrees,DateUTC
12:00 AM,54,39,47,29.88,16,SW,18.4,,,,Partly Cloudy,230,2013-09-16 16:00:00
12:00 AM,55.4,39.2,54,29.86,6.2,SW,18.4,-,N/A,,Mostly Cloudy,230,2013-09-16 16:00:00
12:07 AM,55.4,39.2,54,29.89,6.2,WSW,18.4,34.5,N/A,Rain,Light Rain Showers,240,2013-09-16 16:07:00
12:30 AM,55.4,37.4,51,29.89,6.2,WSW,19.6,-,N/A,,Scattered Clouds,250,2013-09-16 16:30:00
1:00 AM,53.6,39.2,58,29.89,6.2,WSW,10.4,-,N/A,,Mostly Cloudy,250,2013-09-16 17:00:00
1:12 AM,55.4,37.4,51,29.89,1.9,WSW,12.7,-,N/A,Rain,Rain Showers,250,2013-09-16 17:12:00
1:18 AM,48.2,46.4,93,29.89,3.7,West,17.3,28.8,N/A,Rain,Rain Showers,260,2013-09-16 17:18:00
1:26 AM,48.2,44.6,87,29.89,6.2,SW,17.3,-,N/A,Rain,Light Rain Showers,230,2013-09-16 17:26:00
1:30 AM,48.2,44.6,87,29.89,6.2,SW,17.3,-,N/A,,Scattered Clouds,230,2013-09-16 17:30:00
2:00 AM,49,42,68,29.91,,West,9.2,,,,,270,2013-09-16 18:00:00
2:00 AM,50.0,41.0,71,29.89,6.2,West,9.2,-,N/A,,Partly Cloudy,270,2013-09-16 18:00:00
2:19 AM,51.8,42.8,71,29.92,6.2,SW,17.3,29.9,N/A,,Mostly Cloudy,230,2013-09-16 18:19:00
2:30 AM,50.0,44.6,82,29.92,6.2,SW,17.3,-,N/A,Rain,Light Rain Showers,230,2013-09-16 18:30:00
3:00 AM,50,44,75,29.92,12,SW,9.2,,,,Partly Cloudy,220,2013-09-16 19:00:00
3:00 AM,50.0,44.6,82,29.92,6.2,SSW,9.2,-,N/A,,Scattered Clouds,210,2013-09-16 19:00:00
3:30 AM,51.8,41.0,67,29.92,6.2,West,15.0,-,N/A,,Scattered Clouds,260,2013-09-16 19:30:00
4:00 AM,53.6,39.2,58,29.92,6.2,SW,16.1,-,N/A,,Scattered Clouds,230,2013-09-16 20:00:00
4:30 AM,53.6,39.2,58,29.92,6.2,SW,17.3,-,N/A,,Partly Cloudy,230,2013-09-16 20:30:00
5:00 AM,54,36,39,29.94,,SW,16.1,,,,,230,2013-09-16 21:00:00
5:00 AM,53.6,35.6,51,29.92,6.2,SW,16.1,-,N/A,,Partly Cloudy,230,2013-09-16 21:00:00
5:30 AM,53.6,39.2,58,29.95,6.2,SW,16.1,-,N/A,,Unknown,230,2013-09-16 21:30:00
6:00 AM,53,40,50,29.97,16,SW,11.5,,,,Partly Cloudy,230,2013-09-16 22:00:00
6:00 AM,51.8,39.2,62,29.95,6.2,SW,11.5,-,N/A,,Scattered Clouds,230,2013-09-16 22:00:00
6:30 AM,53.6,41.0,62,29.98,6.2,SW,16.1,-,N/A,,Partly Cloudy,230,2013-09-16 22:30:00
7:00 AM,51.8,42.8,71,30.01,6.2,SW,12.7,-,N/A,,Scattered Clouds,220,2013-09-16 23:00:00
7:30 AM,53.6,42.8,67,30.01,6.2,SW,10.4,-,N/A,,Scattered Clouds,220,2013-09-16 23:30:00
8:00 AM,54,45,63,30.04,,SSW,8.1,,,,,210,2013-09-17 00:00:00
8:00 AM,55.4,44.6,67,30.04,6.2,SSW,8.1,-,N/A,,Scattered Clouds,210,2013-09-17 00:00:00
8:30 AM,57.2,42.8,59,30.04,6.2,SW,10.4,-,N/A,,Partly Cloudy,220,2013-09-17 00:30:00
9:00 AM,58,40,41,30.06,12,SSW,18.4,,,,Partly Cloudy,210,2013-09-17 01:00:00
9:00 AM,57.2,41.0,55,30.06,6.2,SSW,18.4,-,N/A,,Scattered Clouds,210,2013-09-17 01:00:00
9:03 AM,57.2,41.0,55,30.06,6.2,South,28.8,-,N/A,,Scattered Clouds,180,2013-09-17 01:03:00
9:09 AM,53.6,46.4,77,30.06,6.2,South,23.0,34.5,N/A,,Scattered Clouds,190,2013-09-17 01:09:00
9:30 AM,57.2,41.0,55,30.06,6.2,SSW,18.4,-,N/A,,Scattered Clouds,210,2013-09-17 01:30:00
10:00 AM,59.0,42.8,55,30.06,6.2,SSW,20.7,-,N/A,Rain,Light Rain Showers,210,2013-09-17 02:00:00
10:30 AM,59.0,41.0,51,30.06,6.2,SSW,13.8,-,N/A,,Partly Cloudy,210,2013-09-17 02:30:00
10:49 AM,60.8,41.0,48,30.06,6.2,SW,17.3,29.9,N/A,Rain,Light Rain Showers,220,2013-09-17 02:49:00
11:00 AM,57,45,54,30.09,,SSW,21.9,,,,,200,2013-09-17 03:00:00
11:00 AM,57.2,44.6,63,30.06,6.2,SSW,21.9,-,N/A,Rain,Light Rain Showers,200,2013-09-17 03:00:00
11:30 AM,60.8,39.2,45,30.06,6.2,SW,10.4,-,N/A,,Scattered Clouds,220,2013-09-17 03:30:00
12:00 PM,60,39,34,30.08,12,WSW,12.7,,,,Partly Cloudy,240,2013-09-17 04:00:00
12:00 PM,60.8,39.2,45,30.06,6.2,West,10.4,-,N/A,,Scattered Clouds,260,2013-09-17 04:00:00
12:30 PM,62.6,42.8,48,30.06,6.2,South,16.1,-,N/A,,Scattered Clouds,190,2013-09-17 04:30:00
1:00 PM,60.8,41.0,48,30.06,6.2,SW,17.3,-,N/A,,Scattered Clouds,220,2013-09-17 05:00:00
1:30 PM,60.8,37.4,42,30.04,6.2,WSW,12.7,-,N/A,,Partly Cloudy,250,2013-09-17 05:30:00
2:00 PM,62,40,32,30.05,,WSW,13.8,,,,,250,2013-09-17 06:00:00
2:00 PM,62.6,39.2,42,30.04,6.2,WSW,13.8,-,N/A,,Scattered Clouds,250,2013-09-17 06:00:00
2:30 PM,62.6,39.2,42,30.04,6.2,West,13.8,-,N/A,,Scattered Clouds,260,2013-09-17 06:30:00
3:00 PM,60,42,39,30.04,16,SSW,13.8,,,,Partly Cloudy,210,2013-09-17 07:00:00
3:00 PM,60.8,41.0,48,30.04,6.2,SSW,13.8,-,N/A,,Mostly Cloudy,210,2013-09-17 07:00:00
3:30 PM,59.0,41.0,51,30.04,6.2,West,11.5,-,N/A,,Mostly Cloudy,260,2013-09-17 07:30:00
4:00 PM,59.0,41.0,51,30.04,6.2,WSW,11.5,-,N/A,,Mostly Cloudy,240,2013-09-17 08:00:00
4:30 PM,60.8,39.2,45,30.04,6.2,West,10.4,-,N/A,,Scattered Clouds,260,2013-09-17 08:30:00
5:00 PM,59,40,37,30.04,,WSW,9.2,,,,,240,2013-09-17 09:00:00
5:00 PM,59.0,39.2,48,30.04,6.2,WSW,9.2,-,N/A,,Scattered Clouds,240,2013-09-17 09:00:00
5:30 PM,59.0,41.0,51,30.04,6.2,West,10.4,-,N/A,,Mostly Cloudy,260,2013-09-17 09:30:00
6:00 PM,57,45,53,30.05,16,WSW,11.5,,,,Partly Cloudy,240,2013-09-17 10:00:00
6:00 PM,57.2,44.6,63,30.04,6.2,SW,12.7,-,N/A,,Mostly Cloudy,230,2013-09-17 10:00:00
6:30 PM,57.2,44.6,63,30.04,6.2,West,6.9,-,N/A,,Mostly Cloudy,280,2013-09-17 10:30:00
7:00 PM,55.4,44.6,67,30.04,6.2,West,4.6,-,N/A,,Mostly Cloudy,270,2013-09-17 11:00:00
7:30 PM,53.6,46.4,77,30.04,-9999.0,WNW,5.8,-,N/A,,Clear,300,2013-09-17 11:30:00
8:00 PM,55,45,60,30.06,,WNW,6.9,,,,,300,2013-09-17 12:00:00
8:00 PM,55.4,44.6,67,30.04,-9999.0,WNW,6.9,-,N/A,,Clear,300,2013-09-17 12:00:00
8:30 PM,53.6,46.4,77,30.06,6.2,NNW,5.8,-,N/A,,Mostly Cloudy,340,2013-09-17 12:30:00
9:00 PM,54,47,70,30.06,19,North,9.2,,,,Partly Cloudy,0,2013-09-17 13:00:00
9:00 PM,53.6,46.4,77,30.04,-9999.0,North,9.2,-,N/A,,Clear,360,2013-09-17 13:00:00
10:00 PM,53.6,48.2,82,30.04,6.2,North,8.1,-,N/A,,Mostly Cloudy,350,2013-09-17 14:00:00
10:30 PM,51.8,48.2,88,30.04,6.2,North,8.1,-,N/A,,Mostly Cloudy,10,2013-09-17 14:30:00
11:00 PM,53,48,79,30.04,,North,8.1,,,,,0,2013-09-17 15:00:00
11:00 PM,53.6,48.2,82,30.04,-9999.0,North,8.1,-,N/A,,Clear,360,2013-09-17 15:00:00
11:30 PM,51.8,48.2,88,30.01,-9999.0,North,8.1,-,N/A,,Clear,10,2013-09-17 15:30:00